Gifford, IL (61847)

12:43 AM CDT on August 29, 2014 (GMT -0500)
Flatville | Change Station
CLOSE
Current Station
Personal Weather Station
Location: Thomasboro, IL
Elevation: 686 ft
Nearby Weather Stations

Elev 686 ft 40.24 °N, 88.06 °W | Updated 11 minutes ago

Rain
Rain
71.9 °F
Feels Like 71.9 °F
N
3.0
Wind Variable Wind from East
Gusts 3.0 mph

Today
High -- | Low -- °F
--% Chance of Precip.
Yesterday
High -- | Low -- °F
Precip. -- in
6:16 AM 7:28 PM
Waxing Crescent, 12% visible
Pressure 30.05 in
Visibility 10.0 miles
Clouds Scattered Clouds 1000 ft
Mostly Cloudy 1600 ft
Mostly Cloudy 2300 ft
Dew Point 70 °F
Humidity 93%
Rainfall 0.21 in
Snow Depth Not available.
UV 0 out of 12
Pollen 10.00 out of 12
Air Quality Not available.
Flu Activity Not available.
METAR KTIP 290510Z AUTO 06004KT 10SM -RA SCT010 BKN016 BKN023 23/21 A3005 RMK AO2 T02340206

More Conditions Fewer Conditions

Pressure 30.05 in
Visibility 10.0 miles
Clouds Scattered Clouds 1000 ft
Mostly Cloudy 1600 ft
Mostly Cloudy 2300 ft
Dew Point 70 °F
Humidity 93%
Rainfall 0.21 in
Snow Depth Not available.
UV 0 out of 12
Pollen 10.00 out of 12
Air Quality Not available.
Flu Activity Not available.
METAR KTIP 290510Z AUTO 06004KT 10SM -RA SCT010 BKN016 BKN023 23/21 A3005 RMK AO2 T02340206

More Conditions Fewer Conditions

10-Day Weather Forecast

Almanac

Astronomy

Aug. 29, 2014 Rise Set
Actual Time 6:16 AM CDT 7:28 PM CDT
Civil Twilight 5:48 AM CDT 7:56 PM CDT
Nautical Twilight 5:14 AM CDT 8:30 PM CDT
Astronomical Twilight 4:39 AM CDT 9:05 PM CDT
Moon 10:06 AM CDT 9:25 PM CDT
Length of Visible Light 14h 08m
Length of Day
13h 11m
Tomorrow will be 2m 31s shorter.
Waxing Crescent, 12% of the Moon is Illuminated
Today
Waxing Crescent
Sep 2
First Quarter
Sep 8
Full
Sep 15
Last Quarter
Sep 24
New

Today's Extremes

State Highs State Lows

Community

WunderPhotos

Upload Photos

1,748,197 photos uploaded!

Nearby

Snow Depth

Station Depth Elevation
No new snow has been reported.

Earthquake Activity

City Distance Mag. Time & Date
No recent earthquake activity has been reported nearby.
Minimum magnitude displayed is 2.5.

Coastal Water Temperatures

Place Temperature
No Stations Reporting

Nearby Weather Stations